Terminal Aerodrome Forecast
Issued by NWS Northern Indiana

Home | Current Version | Previous Version | Text Only | Print | Product List | Glossary On
Versions: 1 2 3 4 5 6 7 8 9 10 11 12
000
FTUS43 KIWX 191122
TAFFWA
TAF
KFWA 191122Z 1912/2012 25006KT 1SM BR SCT005
      TEMPO 1912/1914 1/4SM FG BKN004
     FM191600 27005KT P6SM SCT250=

USA.gov is the U.S. government's official web portal to all federal, state and local government web resources and services.